sensor_id;sensor_type;location;lat;lon;timestamp;pressure;altitude;pressure_sealevel;temperature;humidity
55424;BME280;41294;42.666;23.350;2023-12-20T00:00:55;95290.44;;;0.67;100.00
55424;BME280;41294;42.666;23.350;2023-12-20T00:03:21;95280.81;;;0.67;100.00
55424;BME280;41294;42.666;23.350;2023-12-20T00:05:47;95277.50;;;0.77;100.00
55424;BME280;41294;42.666;23.350;2023-12-20T00:08:13;95279.38;;;0.80;100.00
55424;BME280;41294;42.666;23.350;2023-12-20T00:10:38;95269.03;;;0.80;100.00
55424;BME280;41294;42.666;23.350;2023-12-20T00:13:04;95271.91;;;0.61;100.00
55424;BME280;41294;42.666;23.350;2023-12-20T00:15:29;95273.78;;;0.64;100.00
55424;BME280;41294;42.666;23.350;2023-12-20T00:17:54;95279.31;;;0.66;100.00
55424;BME280;41294;42.666;23.350;2023-12-20T00:20:20;95271.19;;;0.64;100.00
55424;BME280;41294;42.666;23.350;2023-12-20T00:22:45;95262.69;;;0.67;100.00
55424;BME280;41294;42.666;23.350;2023-12-20T00:25:11;95263.78;;;0.66;100.00
55424;BME280;41294;42.666;23.350;2023-12-20T00:27:37;95259.28;;;0.49;100.00
55424;BME280;41294;42.666;23.350;2023-12-20T00:30:02;95253.72;;;0.40;100.00
55424;BME280;41294;42.666;23.350;2023-12-20T00:32:28;95250.41;;;0.43;100.00
55424;BME280;41294;42.666;23.350;2023-12-20T00:34:53;95241.16;;;0.42;100.00
55424;BME280;41294;42.666;23.350;2023-12-20T00:37:20;95243.75;;;0.46;100.00
55424;BME280;41294;42.666;23.350;2023-12-20T00:39:45;95243.81;;;0.63;100.00
55424;BME280;41294;42.666;23.350;2023-12-20T00:42:10;95239.38;;;0.60;100.00
55424;BME280;41294;42.666;23.350;2023-12-20T00:44:36;95237.84;;;0.45;100.00
55424;BME280;41294;42.666;23.350;2023-12-20T00:47:01;95228.97;;;0.46;100.00
55424;BME280;41294;42.666;23.350;2023-12-20T00:49:27;95233.41;;;0.49;100.00
55424;BME280;41294;42.666;23.350;2023-12-20T00:51:52;95240.06;;;0.50;100.00
55424;BME280;41294;42.666;23.350;2023-12-20T00:54:18;95234.16;;;0.43;100.00
55424;BME280;41294;42.666;23.350;2023-12-20T00:56:44;95222.31;;;0.42;100.00
55424;BME280;41294;42.666;23.350;2023-12-20T00:59:09;95228.59;;;0.44;100.00
55424;BME280;41294;42.666;23.350;2023-12-20T01:01:35;95218.97;;;0.41;100.00
55424;BME280;41294;42.666;23.350;2023-12-20T01:04:01;95212.66;;;0.35;100.00
55424;BME280;41294;42.666;23.350;2023-12-20T01:06:26;95213.41;;;0.36;100.00
55424;BME280;41294;42.666;23.350;2023-12-20T01:08:52;95203.81;;;0.43;100.00
55424;BME280;41294;42.666;23.350;2023-12-20T01:11:17;95203.09;;;0.43;100.00
55424;BME280;41294;42.666;23.350;2023-12-20T01:13:43;95207.50;;;0.46;100.00
55424;BME280;41294;42.666;23.350;2023-12-20T01:16:11;95205.31;;;0.51;100.00
55424;BME280;41294;42.666;23.350;2023-12-20T01:18:37;95192.00;;;0.49;100.00
55424;BME280;41294;42.666;23.350;2023-12-20T01:21:04;95201.25;;;0.50;100.00
55424;BME280;41294;42.666;23.350;2023-12-20T01:23:30;95195.72;;;0.48;100.00
55424;BME280;41294;42.666;23.350;2023-12-20T01:25:56;95196.38;;;0.28;100.00
55424;BME280;41294;42.666;23.350;2023-12-20T01:28:21;95184.56;;;0.30;100.00
55424;BME280;41294;42.666;23.350;2023-12-20T01:30:47;95184.59;;;0.37;100.00
55424;BME280;41294;42.666;23.350;2023-12-20T01:33:12;95184.22;;;0.39;100.00
55424;BME280;41294;42.666;23.350;2023-12-20T01:35:38;95180.50;;;0.29;100.00
55424;BME280;41294;42.666;23.350;2023-12-20T01:38:03;95174.22;;;0.37;100.00
55424;BME280;41294;42.666;23.350;2023-12-20T01:40:29;95172.72;;;0.26;100.00
55424;BME280;41294;42.666;23.350;2023-12-20T01:43:08;95174.16;;;0.23;100.00
55424;BME280;41294;42.666;23.350;2023-12-20T01:45:34;95173.44;;;0.26;100.00
55424;BME280;41294;42.666;23.350;2023-12-20T01:48:00;95162.00;;;0.27;100.00
55424;BME280;41294;42.666;23.350;2023-12-20T01:50:28;95152.03;;;0.29;100.00
55424;BME280;41294;42.666;23.350;2023-12-20T01:52:55;95148.28;;;0.20;100.00
55424;BME280;41294;42.666;23.350;2023-12-20T01:55:23;95146.81;;;0.19;100.00
55424;BME280;41294;42.666;23.350;2023-12-20T01:57:50;95147.56;;;0.19;100.00
55424;BME280;41294;42.666;23.350;2023-12-20T02:00:17;95140.53;;;0.16;100.00
55424;BME280;41294;42.666;23.350;2023-12-20T02:02:44;95150.88;;;0.20;100.00
55424;BME280;41294;42.666;23.350;2023-12-20T02:05:10;95148.28;;;0.16;100.00
55424;BME280;41294;42.666;23.350;2023-12-20T02:07:36;95140.13;;;0.14;100.00
55424;BME280;41294;42.666;23.350;2023-12-20T02:10:02;95136.41;;;0.01;100.00
55424;BME280;41294;42.666;23.350;2023-12-20T02:12:29;95134.22;;;0.03;100.00
55424;BME280;41294;42.666;23.350;2023-12-20T02:14:55;95130.53;;;0.08;100.00
55424;BME280;41294;42.666;23.350;2023-12-20T02:17:20;95128.31;;;0.13;100.00
55424;BME280;41294;42.666;23.350;2023-12-20T02:19:46;95121.69;;;0.16;100.00
55424;BME280;41294;42.666;23.350;2023-12-20T02:22:12;95117.97;;;0.13;100.00
55424;BME280;41294;42.666;23.350;2023-12-20T02:24:38;95111.72;;;0.21;100.00
55424;BME280;41294;42.666;23.350;2023-12-20T02:27:06;95113.88;;;0.05;100.00
55424;BME280;41294;42.666;23.350;2023-12-20T02:29:33;95123.88;;;0.10;100.00
55424;BME280;41294;42.666;23.350;2023-12-20T02:31:58;95113.53;;;0.10;100.00
55424;BME280;41294;42.666;23.350;2023-12-20T02:34:24;95107.97;;;0.01;100.00
55424;BME280;41294;42.666;23.350;2023-12-20T02:36:50;95100.56;;;0.00;100.00
55424;BME280;41294;42.666;23.350;2023-12-20T02:39:15;95109.06;;;0.07;100.00
55424;BME280;41294;42.666;23.350;2023-12-20T02:41:41;95106.16;;;0.12;100.00
55424;BME280;41294;42.666;23.350;2023-12-20T02:44:06;95100.19;;;-0.05;100.00
55424;BME280;41294;42.666;23.350;2023-12-20T02:46:32;95096.16;;;0.07;100.00
55424;BME280;41294;42.666;23.350;2023-12-20T02:48:57;95096.13;;;0.04;100.00
55424;BME280;41294;42.666;23.350;2023-12-20T02:51:23;95102.38;;;-0.14;100.00
55424;BME280;41294;42.666;23.350;2023-12-20T02:53:48;95106.44;;;-0.13;100.00
55424;BME280;41294;42.666;23.350;2023-12-20T02:56:14;95095.75;;;-0.08;100.00
55424;BME280;41294;42.666;23.350;2023-12-20T02:58:39;95091.94;;;-0.35;100.00
55424;BME280;41294;42.666;23.350;2023-12-20T03:01:05;95093.34;;;-0.55;100.00
55424;BME280;41294;42.666;23.350;2023-12-20T03:03:31;95091.78;;;-0.70;100.00
55424;BME280;41294;42.666;23.350;2023-12-20T03:05:58;95093.34;;;-0.52;100.00
55424;BME280;41294;42.666;23.350;2023-12-20T03:08:24;95095.22;;;-0.52;100.00
55424;BME280;41294;42.666;23.350;2023-12-20T03:10:50;95094.91;;;-0.37;100.00
55424;BME280;41294;42.666;23.350;2023-12-20T03:13:15;95099.34;;;-0.30;100.00
55424;BME280;41294;42.666;23.350;2023-12-20T03:15:41;95098.63;;;-0.24;100.00
55424;BME280;41294;42.666;23.350;2023-12-20T03:18:06;95090.16;;;-0.24;100.00
55424;BME280;41294;42.666;23.350;2023-12-20T03:20:32;95087.59;;;-0.17;100.00
55424;BME280;41294;42.666;23.350;2023-12-20T03:23:00;95089.78;;;-0.19;100.00
55424;BME280;41294;42.666;23.350;2023-12-20T03:25:25;95093.06;;;-0.36;100.00
55424;BME280;41294;42.666;23.350;2023-12-20T03:27:51;95085.25;;;-0.50;100.00
55424;BME280;41294;42.666;23.350;2023-12-20T03:30:17;95078.50;;;-0.72;100.00
55424;BME280;41294;42.666;23.350;2023-12-20T03:32:42;95080.28;;;-0.83;100.00
55424;BME280;41294;42.666;23.350;2023-12-20T03:35:08;95079.09;;;-0.99;100.00
55424;BME280;41294;42.666;23.350;2023-12-20T03:37:33;95083.63;;;-0.79;100.00
55424;BME280;41294;42.666;23.350;2023-12-20T03:39:58;95078.47;;;-0.79;100.00
55424;BME280;41294;42.666;23.350;2023-12-20T03:42:24;95075.19;;;-0.69;100.00
55424;BME280;41294;42.666;23.350;2023-12-20T03:44:49;95071.53;;;-0.61;100.00
55424;BME280;41294;42.666;23.350;2023-12-20T03:47:15;95077.50;;;-0.47;100.00
55424;BME280;41294;42.666;23.350;2023-12-20T03:49:40;95073.84;;;-0.42;100.00
55424;BME280;41294;42.666;23.350;2023-12-20T03:52:06;95074.22;;;-0.40;100.00
55424;BME280;41294;42.666;23.350;2023-12-20T03:54:31;95068.66;;;-0.42;100.00
55424;BME280;41294;42.666;23.350;2023-12-20T03:56:57;95060.91;;;-0.42;100.00
55424;BME280;41294;42.666;23.350;2023-12-20T03:59:22;95066.81;;;-0.38;100.00
55424;BME280;41294;42.666;23.350;2023-12-20T04:01:48;95063.91;;;-0.30;100.00
55424;BME280;41294;42.666;23.350;2023-12-20T04:04:13;95056.47;;;-0.38;100.00
55424;BME280;41294;42.666;23.350;2023-12-20T04:06:39;95051.69;;;-0.36;100.00
55424;BME280;41294;42.666;23.350;2023-12-20T04:09:05;95050.25;;;-0.23;100.00
55424;BME280;41294;42.666;23.350;2023-12-20T04:11:30;95056.16;;;-0.19;100.00
55424;BME280;41294;42.666;23.350;2023-12-20T04:13:56;95050.25;;;-0.27;100.00
55424;BME280;41294;42.666;23.350;2023-12-20T04:16:21;95046.53;;;-0.29;100.00
55424;BME280;41294;42.666;23.350;2023-12-20T04:18:47;95038.44;;;-0.28;100.00
55424;BME280;41294;42.666;23.350;2023-12-20T04:21:12;95038.03;;;-0.40;100.00
55424;BME280;41294;42.666;23.350;2023-12-20T04:23:38;95050.56;;;-0.42;100.00
55424;BME280;41294;42.666;23.350;2023-12-20T04:26:03;95040.56;;;-0.51;100.00
55424;BME280;41294;42.666;23.350;2023-12-20T04:28:29;95036.50;;;-0.48;100.00
55424;BME280;41294;42.666;23.350;2023-12-20T04:30:57;95035.03;;;-0.49;100.00
55424;BME280;41294;42.666;23.350;2023-12-20T04:33:22;95025.06;;;-0.47;100.00
55424;BME280;41294;42.666;23.350;2023-12-20T04:35:48;95031.38;;;-0.41;100.00
55424;BME280;41294;42.666;23.350;2023-12-20T04:38:13;95028.41;;;-0.50;100.00
55424;BME280;41294;42.666;23.350;2023-12-20T04:40:39;95030.63;;;-0.45;100.00
55424;BME280;41294;42.666;23.350;2023-12-20T04:43:06;95023.22;;;-0.47;100.00
55424;BME280;41294;42.666;23.350;2023-12-20T04:45:32;95022.84;;;-0.52;100.00
55424;BME280;41294;42.666;23.350;2023-12-20T04:47:57;95022.34;;;-0.82;100.00
55424;BME280;41294;42.666;23.350;2023-12-20T04:50:23;95023.81;;;-0.88;100.00
55424;BME280;41294;42.666;23.350;2023-12-20T04:52:48;95021.66;;;-0.72;100.00
55424;BME280;41294;42.666;23.350;2023-12-20T04:55:14;95020.16;;;-0.77;100.00
55424;BME280;41294;42.666;23.350;2023-12-20T04:57:39;95015.66;;;-0.93;100.00
55424;BME280;41294;42.666;23.350;2023-12-20T05:00:06;95017.09;;;-1.03;100.00
55424;BME280;41294;42.666;23.350;2023-12-20T05:02:33;95021.06;;;-1.19;100.00
55424;BME280;41294;42.666;23.350;2023-12-20T05:04:59;95007.72;;;-1.28;100.00
55424;BME280;41294;42.666;23.350;2023-12-20T05:07:25;95008.81;;;-1.29;100.00
55424;BME280;41294;42.666;23.350;2023-12-20T05:09:50;95001.34;;;-1.45;100.00
55424;BME280;41294;42.666;23.350;2023-12-20T05:12:15;95016.94;;;-1.81;100.00
55424;BME280;41294;42.666;23.350;2023-12-20T05:14:41;95013.75;;;-2.11;100.00
55424;BME280;41294;42.666;23.350;2023-12-20T05:17:06;95006.66;;;-2.21;100.00
55424;BME280;41294;42.666;23.350;2023-12-20T05:19:32;95004.56;;;-2.08;100.00
55424;BME280;41294;42.666;23.350;2023-12-20T05:22:01;95011.00;;;-2.28;100.00
55424;BME280;41294;42.666;23.350;2023-12-20T05:24:26;95013.38;;;-2.09;100.00
55424;BME280;41294;42.666;23.350;2023-12-20T05:26:52;95000.22;;;-1.97;100.00
55424;BME280;41294;42.666;23.350;2023-12-20T05:29:17;94994.91;;;-2.18;100.00
55424;BME280;41294;42.666;23.350;2023-12-20T05:31:43;94987.72;;;-1.95;100.00
55424;BME280;41294;42.666;23.350;2023-12-20T05:34:08;94991.34;;;-2.03;100.00
55424;BME280;41294;42.666;23.350;2023-12-20T05:36:34;94991.16;;;-2.24;100.00
55424;BME280;41294;42.666;23.350;2023-12-20T05:38:59;94997.41;;;-2.25;100.00
55424;BME280;41294;42.666;23.350;2023-12-20T05:41:25;94991.69;;;-2.05;100.00
55424;BME280;41294;42.666;23.350;2023-12-20T05:43:50;95000.91;;;-2.04;100.00
55424;BME280;41294;42.666;23.350;2023-12-20T05:46:16;94989.13;;;-2.05;100.00
55424;BME280;41294;42.666;23.350;2023-12-20T05:48:41;94983.75;;;-2.29;100.00
55424;BME280;41294;42.666;23.350;2023-12-20T05:51:07;94985.72;;;-2.12;100.00
55424;BME280;41294;42.666;23.350;2023-12-20T05:53:33;94975.22;;;-1.93;100.00
55424;BME280;41294;42.666;23.350;2023-12-20T05:55:58;94977.53;;;-1.78;100.00
55424;BME280;41294;42.666;23.350;2023-12-20T05:58:24;94977.78;;;-1.97;100.00
55424;BME280;41294;42.666;23.350;2023-12-20T06:00:50;94980.13;;;-1.78;100.00
55424;BME280;41294;42.666;23.350;2023-12-20T06:03:15;94963.72;;;-1.49;100.00
55424;BME280;41294;42.666;23.350;2023-12-20T06:05:41;94974.88;;;-1.35;100.00
55424;BME280;41294;42.666;23.350;2023-12-20T06:08:06;94974.19;;;-1.25;100.00
55424;BME280;41294;42.666;23.350;2023-12-20T06:10:32;94977.25;;;-1.05;100.00
55424;BME280;41294;42.666;23.350;2023-12-20T06:12:57;94971.41;;;-0.88;100.00
55424;BME280;41294;42.666;23.350;2023-12-20T06:15:24;94972.13;;;-0.91;100.00
55424;BME280;41294;42.666;23.350;2023-12-20T06:17:50;94969.88;;;-1.00;100.00
55424;BME280;41294;42.666;23.350;2023-12-20T06:20:15;94985.44;;;-0.86;100.00
55424;BME280;41294;42.666;23.350;2023-12-20T06:22:41;94974.41;;;-0.76;100.00
55424;BME280;41294;42.666;23.350;2023-12-20T06:25:06;94971.34;;;-1.06;100.00
55424;BME280;41294;42.666;23.350;2023-12-20T06:27:32;94978.03;;;-0.91;100.00
55424;BME280;41294;42.666;23.350;2023-12-20T06:29:58;94975.81;;;-0.96;100.00
55424;BME280;41294;42.666;23.350;2023-12-20T06:32:24;94983.28;;;-0.74;100.00
55424;BME280;41294;42.666;23.350;2023-12-20T06:34:50;94976.25;;;-0.73;100.00
55424;BME280;41294;42.666;23.350;2023-12-20T06:37:15;94986.28;;;-0.54;100.00
55424;BME280;41294;42.666;23.350;2023-12-20T06:39:41;94978.19;;;-0.42;100.00
55424;BME280;41294;42.666;23.350;2023-12-20T06:42:06;94967.84;;;-0.49;100.00
55424;BME280;41294;42.666;23.350;2023-12-20T06:44:32;94976.00;;;-0.40;100.00
55424;BME280;41294;42.666;23.350;2023-12-20T06:46:57;94961.94;;;-0.43;100.00
55424;BME280;41294;42.666;23.350;2023-12-20T06:49:23;94961.09;;;-0.85;100.00
55424;BME280;41294;42.666;23.350;2023-12-20T06:51:49;94956.72;;;-0.64;100.00
55424;BME280;41294;42.666;23.350;2023-12-20T06:54:14;94958.94;;;-0.62;100.00
55424;BME280;41294;42.666;23.350;2023-12-20T06:56:40;94951.91;;;-0.65;100.00
55424;BME280;41294;42.666;23.350;2023-12-20T06:59:06;94958.25;;;-0.38;100.00
55424;BME280;41294;42.666;23.350;2023-12-20T07:01:32;94953.88;;;-0.10;100.00
55424;BME280;41294;42.666;23.350;2023-12-20T07:03:57;94944.97;;;0.22;100.00
55424;BME280;41294;42.666;23.350;2023-12-20T07:06:23;94937.59;;;-0.03;100.00
55424;BME280;41294;42.666;23.350;2023-12-20T07:08:49;94943.06;;;0.79;100.00
55424;BME280;41294;42.666;23.350;2023-12-20T07:11:15;94938.41;;;1.89;100.00
55424;BME280;41294;42.666;23.350;2023-12-20T07:13:40;94939.47;;;2.42;99.46
55424;BME280;41294;42.666;23.350;2023-12-20T07:16:07;94938.22;;;3.23;95.60
55424;BME280;41294;42.666;23.350;2023-12-20T07:18:32;94926.44;;;3.72;93.22
55424;BME280;41294;42.666;23.350;2023-12-20T07:20:58;94928.31;;;3.71;89.90
55424;BME280;41294;42.666;23.350;2023-12-20T07:23:23;94939.34;;;3.52;90.35
55424;BME280;41294;42.666;23.350;2023-12-20T07:25:51;94924.03;;;3.84;88.32
55424;BME280;41294;42.666;23.350;2023-12-20T07:28:16;94917.41;;;4.71;84.26
55424;BME280;41294;42.666;23.350;2023-12-20T07:30:42;94915.06;;;4.96;84.25
55424;BME280;41294;42.666;23.350;2023-12-20T07:33:07;94921.34;;;5.37;83.11
55424;BME280;41294;42.666;23.350;2023-12-20T07:35:34;94920.16;;;3.69;83.62
55424;BME280;41294;42.666;23.350;2023-12-20T07:38:00;94925.94;;;3.27;86.64
55424;BME280;41294;42.666;23.350;2023-12-20T07:40:25;94921.75;;;3.04;88.85
55424;BME280;41294;42.666;23.350;2023-12-20T07:42:51;94920.47;;;3.98;88.77
55424;BME280;41294;42.666;23.350;2023-12-20T07:45:16;94926.50;;;3.95;86.50
55424;BME280;41294;42.666;23.350;2023-12-20T07:47:42;94926.53;;;3.91;86.65
55424;BME280;41294;42.666;23.350;2023-12-20T07:50:07;94921.75;;;3.33;84.98
55424;BME280;41294;42.666;23.350;2023-12-20T07:52:33;94907.44;;;2.15;90.13
55424;BME280;41294;42.666;23.350;2023-12-20T07:54:58;94913.13;;;1.49;96.15
55424;BME280;41294;42.666;23.350;2023-12-20T07:57:24;94908.25;;;1.55;98.25
55424;BME280;41294;42.666;23.350;2023-12-20T07:59:49;94918.00;;;1.94;96.95
55424;BME280;41294;42.666;23.350;2023-12-20T08:02:15;94917.09;;;1.64;96.92
55424;BME280;41294;42.666;23.350;2023-12-20T08:04:40;94912.25;;;0.98;100.00
55424;BME280;41294;42.666;23.350;2023-12-20T08:07:06;94905.66;;;0.86;100.00
55424;BME280;41294;42.666;23.350;2023-12-20T08:09:33;94912.56;;;1.14;100.00
55424;BME280;41294;42.666;23.350;2023-12-20T08:12:01;94910.38;;;1.02;100.00
55424;BME280;41294;42.666;23.350;2023-12-20T08:14:27;94902.56;;;1.73;100.00
55424;BME280;41294;42.666;23.350;2023-12-20T08:16:53;94901.59;;;2.04;99.00
55424;BME280;41294;42.666;23.350;2023-12-20T08:19:18;94891.25;;;2.01;97.57
55424;BME280;41294;42.666;23.350;2023-12-20T08:21:43;94888.03;;;2.30;96.24
55424;BME280;41294;42.666;23.350;2023-12-20T08:24:09;94894.13;;;1.62;99.27
55424;BME280;41294;42.666;23.350;2023-12-20T08:26:35;94897.47;;;1.63;100.00
55424;BME280;41294;42.666;23.350;2023-12-20T08:29:01;94897.59;;;2.40;99.57
55424;BME280;41294;42.666;23.350;2023-12-20T08:31:27;94875.25;;;2.46;95.60
55424;BME280;41294;42.666;23.350;2023-12-20T08:33:52;94895.34;;;3.35;94.67
55424;BME280;41294;42.666;23.350;2023-12-20T08:36:19;94874.94;;;3.33;90.61
55424;BME280;41294;42.666;23.350;2023-12-20T08:38:46;94860.09;;;2.41;94.21
55424;BME280;41294;42.666;23.350;2023-12-20T08:41:12;94872.69;;;1.59;99.47
55424;BME280;41294;42.666;23.350;2023-12-20T08:43:38;94868.38;;;2.29;99.67
55424;BME280;41294;42.666;23.350;2023-12-20T08:46:06;94860.50;;;1.52;100.00
55424;BME280;41294;42.666;23.350;2023-12-20T08:48:31;94859.78;;;1.95;100.00
55424;BME280;41294;42.666;23.350;2023-12-20T08:50:57;94851.41;;;1.77;100.00
55424;BME280;41294;42.666;23.350;2023-12-20T08:53:22;94860.63;;;1.28;100.00
55424;BME280;41294;42.666;23.350;2023-12-20T08:55:48;94860.09;;;1.57;100.00
55424;BME280;41294;42.666;23.350;2023-12-20T08:58:14;94856.28;;;1.18;100.00
55424;BME280;41294;42.666;23.350;2023-12-20T09:00:39;94846.63;;;1.18;100.00
55424;BME280;41294;42.666;23.350;2023-12-20T09:03:05;94848.41;;;1.32;100.00
55424;BME280;41294;42.666;23.350;2023-12-20T09:05:30;94838.38;;;1.37;100.00
55424;BME280;41294;42.666;23.350;2023-12-20T09:07:56;94831.38;;;1.31;100.00
55424;BME280;41294;42.666;23.350;2023-12-20T09:10:22;94819.47;;;1.37;100.00
55424;BME280;41294;42.666;23.350;2023-12-20T09:12:51;94808.28;;;1.50;100.00
55424;BME280;41294;42.666;23.350;2023-12-20T09:15:21;94792.28;;;1.11;100.00
55424;BME280;41294;42.666;23.350;2023-12-20T09:17:47;94794.94;;;1.52;100.00
55424;BME280;41294;42.666;23.350;2023-12-20T09:20:12;94790.63;;;1.78;100.00
55424;BME280;41294;42.666;23.350;2023-12-20T09:22:39;94780.59;;;1.80;100.00
55424;BME280;41294;42.666;23.350;2023-12-20T09:25:05;94777.09;;;1.61;100.00
55424;BME280;41294;42.666;23.350;2023-12-20T09:27:30;94773.41;;;1.55;100.00
55424;BME280;41294;42.666;23.350;2023-12-20T09:29:57;94760.94;;;1.43;100.00
55424;BME280;41294;42.666;23.350;2023-12-20T09:32:23;94767.66;;;1.33;100.00
55424;BME280;41294;42.666;23.350;2023-12-20T09:34:48;94767.81;;;1.16;100.00
55424;BME280;41294;42.666;23.350;2023-12-20T09:37:14;94757.13;;;1.07;100.00
55424;BME280;41294;42.666;23.350;2023-12-20T09:39:39;94749.41;;;1.47;100.00
55424;BME280;41294;42.666;23.350;2023-12-20T09:42:06;94742.59;;;1.63;100.00
55424;BME280;41294;42.666;23.350;2023-12-20T09:44:32;94734.25;;;1.42;100.00
55424;BME280;41294;42.666;23.350;2023-12-20T09:47:02;94735.22;;;1.18;100.00
55424;BME280;41294;42.666;23.350;2023-12-20T09:49:29;94736.91;;;0.88;100.00
55424;BME280;41294;42.666;23.350;2023-12-20T09:51:56;94732.47;;;0.85;100.00
55424;BME280;41294;42.666;23.350;2023-12-20T09:54:23;94725.50;;;1.29;100.00
55424;BME280;41294;42.666;23.350;2023-12-20T09:56:49;94715.19;;;1.22;100.00
55424;BME280;41294;42.666;23.350;2023-12-20T09:59:15;94723.13;;;1.85;100.00
55424;BME280;41294;42.666;23.350;2023-12-20T10:01:41;94723.00;;;1.59;100.00
55424;BME280;41294;42.666;23.350;2023-12-20T10:04:09;94723.38;;;1.94;100.00
55424;BME280;41294;42.666;23.350;2023-12-20T10:06:44;94727.56;;;2.18;100.00
55424;BME280;41294;42.666;23.350;2023-12-20T10:09:10;94720.34;;;2.62;100.00
55424;BME280;41294;42.666;23.350;2023-12-20T10:11:37;94691.16;;;2.78;100.00
55424;BME280;41294;42.666;23.350;2023-12-20T10:14:03;94683.41;;;3.01;100.00
55424;BME280;41294;42.666;23.350;2023-12-20T10:16:29;94685.50;;;3.74;99.63
55424;BME280;41294;42.666;23.350;2023-12-20T10:18:56;94684.94;;;4.41;94.59
55424;BME280;41294;42.666;23.350;2023-12-20T10:21:22;94691.44;;;3.94;94.05
55424;BME280;41294;42.666;23.350;2023-12-20T10:23:49;94670.81;;;4.03;94.43
55424;BME280;41294;42.666;23.350;2023-12-20T10:26:22;94668.75;;;4.14;92.84
55424;BME280;41294;42.666;23.350;2023-12-20T10:28:53;94654.84;;;4.20;93.34
55424;BME280;41294;42.666;23.350;2023-12-20T10:31:34;94659.06;;;5.45;90.20
55424;BME280;41294;42.666;23.350;2023-12-20T10:34:01;94649.19;;;5.37;86.46
55424;BME280;41294;42.666;23.350;2023-12-20T10:36:29;94655.78;;;5.57;86.46
55424;BME280;41294;42.666;23.350;2023-12-20T10:38:55;94654.34;;;6.62;84.09
55424;BME280;41294;42.666;23.350;2023-12-20T10:41:28;94648.63;;;6.80;78.56
55424;BME280;41294;42.666;23.350;2023-12-20T10:44:01;94636.41;;;4.31;90.11
55424;BME280;41294;42.666;23.350;2023-12-20T10:46:27;94627.25;;;4.90;89.81
55424;BME280;41294;42.666;23.350;2023-12-20T10:48:56;94626.22;;;4.01;92.35
55424;BME280;41294;42.666;23.350;2023-12-20T10:51:23;94623.59;;;4.20;92.83
55424;BME280;41294;42.666;23.350;2023-12-20T10:53:52;94622.81;;;4.39;91.64
55424;BME280;41294;42.666;23.350;2023-12-20T10:56:18;94619.81;;;4.41;92.35
55424;BME280;41294;42.666;23.350;2023-12-20T10:58:46;94607.44;;;4.45;91.69
55424;BME280;41294;42.666;23.350;2023-12-20T11:01:13;94616.16;;;3.64;95.65
55424;BME280;41294;42.666;23.350;2023-12-20T11:03:45;94604.69;;;3.42;97.99
55424;BME280;41294;42.666;23.350;2023-12-20T11:06:53;94595.06;;;3.39;99.26
55424;BME280;41294;42.666;23.350;2023-12-20T11:09:26;94603.13;;;3.25;100.00
55424;BME280;41294;42.666;23.350;2023-12-20T11:17:14;94587.53;;;3.25;100.00
55424;BME280;41294;42.666;23.350;2023-12-20T11:22:30;94568.41;;;2.93;100.00
55424;BME280;41294;42.666;23.350;2023-12-20T11:25:22;94571.72;;;3.17;100.00
55424;BME280;41294;42.666;23.350;2023-12-20T11:28:11;94568.81;;;3.53;100.00
55424;BME280;41294;42.666;23.350;2023-12-20T11:30:49;94558.78;;;2.94;100.00
55424;BME280;41294;42.666;23.350;2023-12-20T11:33:16;94551.47;;;2.85;100.00
55424;BME280;41294;42.666;23.350;2023-12-20T11:35:42;94541.16;;;2.82;100.00
55424;BME280;41294;42.666;23.350;2023-12-20T11:38:09;94535.66;;;3.19;100.00
55424;BME280;41294;42.666;23.350;2023-12-20T11:40:35;94522.31;;;3.17;100.00
55424;BME280;41294;42.666;23.350;2023-12-20T11:43:02;94529.75;;;3.37;100.00
55424;BME280;41294;42.666;23.350;2023-12-20T11:45:28;94523.53;;;3.51;100.00
55424;BME280;41294;42.666;23.350;2023-12-20T11:47:56;94538.44;;;3.08;100.00
55424;BME280;41294;42.666;23.350;2023-12-20T11:50:23;94519.84;;;3.68;100.00
55424;BME280;41294;42.666;23.350;2023-12-20T11:52:51;94503.97;;;3.62;100.00
55424;BME280;41294;42.666;23.350;2023-12-20T11:55:17;94504.50;;;3.54;100.00
55424;BME280;41294;42.666;23.350;2023-12-20T11:57:43;94487.75;;;3.90;100.00
55424;BME280;41294;42.666;23.350;2023-12-20T12:00:09;94492.16;;;4.25;98.86
55424;BME280;41294;42.666;23.350;2023-12-20T12:02:35;94491.25;;;3.64;100.00
55424;BME280;41294;42.666;23.350;2023-12-20T12:05:00;94479.34;;;3.47;100.00
55424;BME280;41294;42.666;23.350;2023-12-20T12:07:26;94468.63;;;4.12;100.00
55424;BME280;41294;42.666;23.350;2023-12-20T12:09:52;94477.47;;;3.83;100.00
55424;BME280;41294;42.666;23.350;2023-12-20T12:12:17;94463.25;;;3.36;100.00
55424;BME280;41294;42.666;23.350;2023-12-20T12:14:45;94466.34;;;3.47;100.00
55424;BME280;41294;42.666;23.350;2023-12-20T12:17:11;94458.88;;;4.01;100.00
55424;BME280;41294;42.666;23.350;2023-12-20T12:19:40;94453.22;;;3.54;100.00
55424;BME280;41294;42.666;23.350;2023-12-20T12:22:09;94454.88;;;3.96;100.00
55424;BME280;41294;42.666;23.350;2023-12-20T12:24:46;94456.09;;;4.07;100.00
55424;BME280;41294;42.666;23.350;2023-12-20T12:27:12;94445.84;;;4.32;99.96
55424;BME280;41294;42.666;23.350;2023-12-20T12:29:39;94446.31;;;4.43;97.75
55424;BME280;41294;42.666;23.350;2023-12-20T12:32:06;94445.94;;;4.13;100.00
55424;BME280;41294;42.666;23.350;2023-12-20T12:34:35;94446.66;;;4.74;98.10
55424;BME280;41294;42.666;23.350;2023-12-20T12:37:02;94439.41;;;5.34;95.24
55424;BME280;41294;42.666;23.350;2023-12-20T12:39:29;94442.59;;;5.67;92.43
55424;BME280;41294;42.666;23.350;2023-12-20T12:41:56;94430.28;;;5.92;92.12
55424;BME280;41294;42.666;23.350;2023-12-20T12:44:22;94421.81;;;6.00;89.96
55424;BME280;41294;42.666;23.350;2023-12-20T12:46:50;94429.50;;;6.16;89.44
55424;BME280;41294;42.666;23.350;2023-12-20T12:49:16;94423.19;;;5.80;88.93
55424;BME280;41294;42.666;23.350;2023-12-20T12:51:43;94416.78;;;5.44;90.41